Terminal Aerodrome Forecast
Issued by NWS

Home | Current Version | Previous Version | Graphics & Text | Print | Product List | Glossary On
Versions: 1 2 3 4 5 6 7 8 9 10 11 12 13 14 15 16 17 18 19 20 21 22 23
314
FTUS41 KCLE 221025 AAB
TAFFDY
TAF AMD
KFDY 221025Z 2210/2306 VRB03KT 6SM BR BKN080
      TEMPO 2211/2213 4SM BR
     FM221500 VRB03KT 6SM HZ SCT025
     FM230000 04010KT 5SM BR OVC015=

USA.gov is the U.S. government's official web portal to all federal, state and local government web resources and services.